Time;durP1;ratioP1;P1;durP2;ratioP2;P2;SDS_P1;SDS_P2;PMS_P1;PMS_P2;Temp;Humidity;BMP_temperature;BMP_pressure;BME280_temperature;BME280_humidity;BME280_pressure;Samples;Min_cycle;Max_cycle;Signal;HPM_P1;HPM_P2
2022/03/10 00:02:23;;;;;;;10.93;7.00;;;2.40;99.90;;;;;;4925509;29;20047;-76
2022/03/10 00:04:49;;;;;;;9.13;7.73;;;2.30;99.90;;;;;;4925767;29;20131;-76
2022/03/10 00:07:14;;;;;;;10.30;7.73;;;2.30;99.90;;;;;;4926134;29;20059;-76
2022/03/10 00:09:40;;;;;;;4.80;4.30;;;2.30;99.90;;;;;;4927104;29;20055;-77
2022/03/10 00:12:07;;;;;;;10.60;6.63;;;2.30;99.90;;;;;;4924697;29;20066;-77
2022/03/10 00:14:33;;;;;;;9.87;6.27;;;2.30;99.90;;;;;;4925375;29;20054;-77
2022/03/10 00:16:59;;;;;;;8.40;6.07;;;2.20;99.90;;;;;;4925711;29;20744;-76
2022/03/10 00:19:25;;;;;;;9.43;5.37;;;2.20;99.90;;;;;;4926750;29;20047;-76
2022/03/10 00:21:50;;;;;;;9.43;6.27;;;2.20;99.90;;;;;;4926102;29;20086;-76
2022/03/10 00:24:18;;;;;;;6.47;5.87;;;2.20;99.90;;;;;;4926920;29;20118;-77
2022/03/10 00:26:45;;;;;;;10.80;6.67;;;2.10;99.90;;;;;;4927110;29;20123;-77
2022/03/10 00:29:11;;;;;;;7.33;6.63;;;2.10;99.90;;;;;;4925372;29;20039;-76
2022/03/10 00:31:36;;;;;;;8.27;6.33;;;2.10;99.90;;;;;;4908482;29;20119;-77
2022/03/10 00:34:02;;;;;;;8.80;5.93;;;2.10;99.90;;;;;;4926423;29;20036;-77
2022/03/10 00:36:28;;;;;;;7.67;5.20;;;2.10;99.90;;;;;;4926246;29;20406;-77
2022/03/10 00:38:54;;;;;;;9.83;7.10;;;2.00;99.90;;;;;;4926400;29;20058;-76
2022/03/10 00:41:19;;;;;;;14.47;6.73;;;2.00;99.90;;;;;;4926229;29;20451;-77
2022/03/10 00:43:45;;;;;;;7.20;4.90;;;2.00;99.90;;;;;;4926443;29;20047;-77
2022/03/10 00:46:11;;;;;;;9.27;5.97;;;2.00;99.90;;;;;;4908014;29;20099;-77
2022/03/10 00:48:37;;;;;;;8.47;6.60;;;2.00;99.90;;;;;;4914132;29;20055;-76
2022/03/10 00:51:03;;;;;;;8.50;5.23;;;2.00;99.90;;;;;;4926359;28;20411;-76
2022/03/10 00:53:29;;;;;;;8.07;6.93;;;2.00;99.90;;;;;;4926116;29;20047;-77
2022/03/10 00:55:54;;;;;;;10.30;7.17;;;2.00;99.90;;;;;;4925748;29;20516;-77
2022/03/10 00:58:20;;;;;;;9.13;6.37;;;2.00;99.90;;;;;;4941225;28;20048;-76
2022/03/10 01:00:46;;;;;;;8.33;6.07;;;2.00;99.90;;;;;;4925557;29;20058;-76
2022/03/10 01:03:12;;;;;;;4.80;4.13;;;2.00;99.90;;;;;;4925688;29;20121;-77
2022/03/10 01:05:37;;;;;;;10.40;5.93;;;2.00;99.90;;;;;;4940792;29;20047;-77
2022/03/10 01:08:04;;;;;;;9.27;6.13;;;2.00;99.90;;;;;;4925040;29;20047;-77
2022/03/10 01:10:30;;;;;;;7.40;6.53;;;2.00;99.90;;;;;;4926556;29;20047;-77
2022/03/10 01:12:56;;;;;;;6.13;4.37;;;1.90;99.90;;;;;;4925390;29;20107;-76
2022/03/10 01:15:25;;;;;;;5.10;4.63;;;1.90;99.90;;;;;;4925736;29;20134;-77
2022/03/10 01:17:50;;;;;;;12.40;4.87;;;1.90;99.90;;;;;;4924687;29;20040;-77
2022/03/10 01:20:17;;;;;;;6.50;5.87;;;1.90;99.90;;;;;;4925559;29;20058;-77
2022/03/10 01:22:43;;;;;;;11.90;6.03;;;1.90;99.90;;;;;;4926184;29;20044;-77
2022/03/10 01:25:10;;;;;;;8.10;6.33;;;1.90;99.90;;;;;;4925843;29;20099;-77
2022/03/10 01:27:36;;;;;;;5.80;5.23;;;1.90;99.90;;;;;;4925423;29;20047;-77
2022/03/10 01:30:03;;;;;;;14.27;8.00;;;1.80;99.90;;;;;;4924641;29;20430;-77
2022/03/10 01:32:29;;;;;;;7.23;6.43;;;1.80;99.90;;;;;;4925604;29;20047;-77
2022/03/10 01:34:55;;;;;;;7.20;5.40;;;1.80;99.90;;;;;;4923615;29;20047;-77
2022/03/10 01:37:20;;;;;;;6.33;4.07;;;1.80;99.90;;;;;;4926000;29;20048;-76
2022/03/10 01:39:46;;;;;;;5.10;4.60;;;1.70;99.90;;;;;;4924294;29;20095;-77
2022/03/10 01:42:12;;;;;;;5.77;5.27;;;1.70;99.90;;;;;;4925867;29;20513;-77
2022/03/10 01:44:38;;;;;;;5.67;5.27;;;1.70;99.90;;;;;;4925993;29;20071;-77
2022/03/10 01:47:05;;;;;;;7.83;5.67;;;1.70;99.90;;;;;;4924320;29;20036;-77
2022/03/10 01:49:32;;;;;;;11.70;5.13;;;1.70;99.90;;;;;;4925141;29;20079;-76
2022/03/10 01:51:59;;;;;;;7.33;6.63;;;1.70;99.90;;;;;;4925809;29;20127;-76
2022/03/10 01:54:24;;;;;;;7.13;6.27;;;1.70;99.90;;;;;;4925823;29;20102;-76
2022/03/10 01:56:51;;;;;;;7.43;6.73;;;1.70;99.90;;;;;;4923734;29;20055;-77
2022/03/10 01:59:19;;;;;;;5.53;4.17;;;1.70;99.90;;;;;;4925710;29;20439;-76
2022/03/10 02:01:44;;;;;;;8.10;5.77;;;1.70;99.90;;;;;;4924685;29;20138;-76
2022/03/10 02:04:10;;;;;;;10.53;6.73;;;1.60;99.90;;;;;;4925529;29;20119;-77
2022/03/10 02:06:36;;;;;;;4.97;3.70;;;1.60;99.90;;;;;;4924684;29;20458;-76
2022/03/10 02:11:47;;;;;;;9.30;6.63;;;1.60;99.90;;;;;;4924784;29;20051;-76
2022/03/10 02:19:42;;;;;;;4.60;4.20;;;1.60;99.90;;;;;;4924423;29;20134;-76
2022/03/10 02:22:10;;;;;;;5.40;4.50;;;1.50;99.90;;;;;;4925002;29;20575;-76
2022/03/10 02:24:37;;;;;;;5.93;4.40;;;1.60;99.90;;;;;;4925471;29;20039;-76
2022/03/10 02:27:21;;;;;;;5.27;4.70;;;1.50;99.90;;;;;;4924631;29;20209;-77
2022/03/10 02:29:52;;;;;;;5.13;4.63;;;1.60;99.90;;;;;;4924998;29;20502;-76
2022/03/10 02:32:19;;;;;;;7.77;6.33;;;1.50;99.90;;;;;;4924564;29;20070;-76
2022/03/10 02:34:46;;;;;;;4.77;4.33;;;1.50;99.90;;;;;;4925629;29;20174;-76
2022/03/10 02:37:12;;;;;;;4.60;3.33;;;1.50;99.90;;;;;;4929249;29;20048;-77
2022/03/10 02:39:39;;;;;;;11.10;5.13;;;1.40;99.90;;;;;;4928491;29;20131;-77
2022/03/10 02:42:06;;;;;;;7.93;5.17;;;1.40;99.90;;;;;;4928288;29;20059;-76
2022/03/10 02:44:31;;;;;;;6.87;5.63;;;1.40;99.90;;;;;;4923254;29;20063;-77
2022/03/10 02:46:57;;;;;;;8.47;7.60;;;1.40;99.90;;;;;;4908181;29;20499;-76
2022/03/10 02:49:23;;;;;;;12.00;6.87;;;1.40;99.90;;;;;;4926256;29;20039;-76
2022/03/10 02:51:49;;;;;;;4.93;4.57;;;1.30;99.90;;;;;;4943096;29;20057;-76
2022/03/10 02:54:15;;;;;;;9.07;5.77;;;1.40;99.90;;;;;;4928336;29;20151;-76
2022/03/10 02:56:40;;;;;;;10.33;5.50;;;1.30;99.90;;;;;;4928695;29;20123;-76
2022/03/10 02:59:06;;;;;;;5.40;4.90;;;1.30;99.90;;;;;;4927963;29;20044;-76
2022/03/10 03:01:32;;;;;;;7.67;6.67;;;1.30;99.90;;;;;;4927474;29;20047;-76
2022/03/10 03:03:57;;;;;;;17.37;7.37;;;1.30;99.90;;;;;;4926856;29;20051;-76
2022/03/10 03:06:23;;;;;;;7.60;7.00;;;1.20;99.90;;;;;;4928051;29;20709;-76
2022/03/10 03:08:48;;;;;;;5.83;5.23;;;1.20;99.90;;;;;;4927793;29;20047;-76
2022/03/10 03:11:15;;;;;;;5.30;4.80;;;1.20;99.90;;;;;;4927375;29;20055;-76
2022/03/10 03:13:40;;;;;;;10.07;5.40;;;1.20;99.90;;;;;;4927013;29;20052;-76
2022/03/10 03:16:06;;;;;;;14.83;8.70;;;1.20;99.90;;;;;;4927840;29;20682;-76
2022/03/10 03:18:31;;;;;;;4.83;4.43;;;1.20;99.90;;;;;;4927167;29;20052;-76
2022/03/10 03:20:57;;;;;;;4.93;4.43;;;1.10;99.90;;;;;;4927702;29;20047;-77
2022/03/10 03:23:23;;;;;;;8.20;6.23;;;1.10;99.90;;;;;;4926513;29;20443;-76
2022/03/10 03:25:49;;;;;;;4.77;4.20;;;1.10;99.90;;;;;;4926108;29;20110;-76
2022/03/10 03:28:15;;;;;;;6.47;5.83;;;1.10;99.90;;;;;;4927778;29;20043;-76
2022/03/10 03:30:41;;;;;;;7.30;4.70;;;1.10;99.90;;;;;;4928126;29;20043;-76
2022/03/10 03:33:06;;;;;;;5.40;5.10;;;1.10;99.90;;;;;;4925577;29;20533;-77
2022/03/10 03:35:32;;;;;;;7.30;6.30;;;1.10;99.90;;;;;;4927381;29;20130;-76
2022/03/10 03:37:57;;;;;;;17.03;5.00;;;1.10;99.90;;;;;;4927522;29;20044;-77
2022/03/10 03:40:23;;;;;;;5.70;5.00;;;1.00;99.90;;;;;;4926344;29;20083;-76
2022/03/10 03:42:49;;;;;;;5.53;5.03;;;1.00;99.90;;;;;;4927223;29;20491;-76
2022/03/10 03:45:15;;;;;;;4.90;4.40;;;1.00;99.90;;;;;;4927234;29;20050;-76
2022/03/10 03:47:41;;;;;;;4.83;4.53;;;1.10;99.90;;;;;;4927109;29;20052;-76
2022/03/10 03:50:08;;;;;;;8.13;5.13;;;1.10;99.90;;;;;;4925663;29;20044;-77
2022/03/10 03:52:34;;;;;;;6.90;6.20;;;1.10;99.90;;;;;;4925825;29;20051;-76
2022/03/10 03:55:00;;;;;;;5.00;4.60;;;1.10;99.90;;;;;;4927050;29;20047;-76
2022/03/10 03:57:25;;;;;;;5.03;4.63;;;1.10;99.90;;;;;;4926835;29;20709;-76
2022/03/10 03:59:51;;;;;;;30.77;6.53;;;1.10;99.90;;;;;;4927072;29;20051;-76
2022/03/10 04:02:16;;;;;;;6.17;5.73;;;1.10;99.90;;;;;;4926300;29;20197;-76
2022/03/10 04:04:42;;;;;;;7.70;6.63;;;1.10;99.90;;;;;;4927416;29;20099;-76
2022/03/10 04:07:07;;;;;;;6.50;5.93;;;1.10;99.90;;;;;;4925697;29;20130;-77
2022/03/10 04:09:33;;;;;;;8.53;7.73;;;1.10;99.90;;;;;;4926452;29;20142;-76
2022/03/10 04:11:58;;;;;;;5.43;4.93;;;1.10;99.90;;;;;;4926732;29;20102;-76
2022/03/10 04:14:24;;;;;;;7.00;6.40;;;1.10;99.90;;;;;;4925480;29;20060;-76
2022/03/10 04:16:50;;;;;;;9.00;5.60;;;1.10;99.90;;;;;;4924346;29;20055;-76
2022/03/10 04:19:15;;;;;;;5.70;5.27;;;1.10;99.90;;;;;;4927109;29;20048;-76
2022/03/10 04:21:41;;;;;;;10.90;6.40;;;1.10;99.90;;;;;;4926657;29;20538;-76
2022/03/10 04:24:07;;;;;;;7.60;5.00;;;1.10;99.90;;;;;;4925319;29;20533;-76
2022/03/10 04:26:32;;;;;;;8.37;6.20;;;1.10;99.90;;;;;;4926484;29;20521;-76
2022/03/10 04:28:58;;;;;;;6.87;5.83;;;1.10;99.90;;;;;;4925780;29;20450;-76
2022/03/10 04:31:24;;;;;;;6.00;5.40;;;1.10;99.90;;;;;;4926173;29;20466;-76
2022/03/10 04:33:49;;;;;;;5.70;5.30;;;1.10;99.90;;;;;;4926054;29;20600;-76
2022/03/10 04:36:15;;;;;;;7.40;6.77;;;1.10;99.90;;;;;;4926325;29;20465;-76
2022/03/10 04:38:40;;;;;;;7.27;6.10;;;1.10;99.90;;;;;;4927045;29;20058;-76
2022/03/10 04:41:06;;;;;;;8.27;5.73;;;1.10;99.90;;;;;;4925942;29;20047;-76
2022/03/10 04:43:32;;;;;;;7.57;5.10;;;1.10;99.90;;;;;;4925771;29;20047;-76
2022/03/10 04:45:59;;;;;;;7.27;6.47;;;1.10;99.90;;;;;;4924943;29;20099;-77
2022/03/10 04:48:25;;;;;;;5.60;5.07;;;1.10;99.90;;;;;;4940564;28;20047;-76
2022/03/10 04:50:50;;;;;;;6.57;5.93;;;1.10;99.90;;;;;;4924997;29;20051;-76
2022/03/10 04:53:16;;;;;;;8.47;5.23;;;1.10;99.90;;;;;;4926133;29;20043;-76
2022/03/10 04:55:42;;;;;;;5.90;5.40;;;1.10;99.90;;;;;;4926536;29;20047;-76
2022/03/10 04:58:08;;;;;;;8.27;4.93;;;1.10;99.90;;;;;;4925780;29;20039;-76
2022/03/10 05:00:34;;;;;;;15.47;7.53;;;1.10;99.90;;;;;;4925848;29;20120;-76
2022/03/10 05:03:00;;;;;;;6.13;5.67;;;1.10;99.90;;;;;;4924215;29;20090;-76
2022/03/10 05:05:26;;;;;;;5.70;5.20;;;1.10;99.90;;;;;;4925811;29;20561;-76
2022/03/10 05:07:52;;;;;;;11.10;6.43;;;1.10;99.90;;;;;;4925584;29;20047;-76
2022/03/10 05:10:18;;;;;;;6.97;6.30;;;1.10;99.90;;;;;;4926439;29;20466;-76
2022/03/10 05:12:45;;;;;;;6.37;5.67;;;1.00;99.90;;;;;;4926065;29;20757;-76
2022/03/10 05:15:11;;;;;;;13.20;6.63;;;1.00;99.90;;;;;;4926123;29;20734;-76
2022/03/10 05:17:36;;;;;;;16.67;5.20;;;1.00;99.90;;;;;;4924130;29;20051;-76
2022/03/10 05:20:02;;;;;;;21.60;7.23;;;1.00;99.90;;;;;;4925201;29;20482;-76
2022/03/10 05:22:47;;;;;;;5.77;5.23;;;0.90;99.90;;;;;;4909223;29;20044;-76
2022/03/10 05:25:14;;;;;;;6.63;6.03;;;1.00;99.90;;;;;;4924420;29;20048;-76
2022/03/10 05:27:40;;;;;;;6.03;5.43;;;0.90;99.90;;;;;;4926247;29;20094;-76
2022/03/10 05:30:06;;;;;;;9.87;6.60;;;0.90;99.90;;;;;;4925542;29;20076;-76
2022/03/10 05:32:32;;;;;;;6.77;5.97;;;0.90;99.90;;;;;;4925179;29;20618;-76
2022/03/10 05:35:00;;;;;;;7.43;6.27;;;1.00;99.90;;;;;;4924143;29;20138;-76
2022/03/10 05:37:25;;;;;;;12.10;8.07;;;0.90;99.90;;;;;;4924528;29;20119;-76
2022/03/10 05:39:51;;;;;;;9.63;5.83;;;0.90;99.90;;;;;;4925569;29;20127;-76
2022/03/10 05:42:16;;;;;;;7.13;5.83;;;0.90;99.90;;;;;;4924489;29;20439;-76
2022/03/10 05:44:42;;;;;;;5.30;4.90;;;0.90;99.90;;;;;;4926254;29;20044;-76
2022/03/10 05:47:09;;;;;;;4.93;4.43;;;0.90;99.90;;;;;;4922739;29;20122;-76
2022/03/10 05:49:35;;;;;;;5.87;5.37;;;0.90;99.90;;;;;;4925917;28;20052;-76
2022/03/10 05:52:01;;;;;;;6.13;4.63;;;0.90;99.90;;;;;;4925284;29;20491;-76
2022/03/10 05:54:26;;;;;;;7.23;6.53;;;0.90;99.90;;;;;;4939353;28;20043;-77
2022/03/10 05:56:52;;;;;;;6.03;5.53;;;0.90;99.90;;;;;;4925112;29;20823;-76
2022/03/10 05:59:19;;;;;;;8.47;5.53;;;0.80;99.90;;;;;;4924707;29;20410;-76
2022/03/10 06:01:45;;;;;;;7.67;6.90;;;0.90;99.90;;;;;;4923436;29;20142;-76
2022/03/10 06:04:11;;;;;;;10.43;7.57;;;0.80;99.90;;;;;;4926031;29;20642;-76
2022/03/10 06:06:36;;;;;;;6.63;6.00;;;0.80;99.90;;;;;;4925444;29;20044;-76
2022/03/10 06:09:02;;;;;;;9.23;6.60;;;0.80;99.90;;;;;;4924961;29;20040;-76
2022/03/10 06:11:28;;;;;;;16.37;7.83;;;0.80;99.90;;;;;;4927476;29;20414;-76
2022/03/10 06:13:54;;;;;;;8.17;7.10;;;0.80;99.90;;;;;;4927871;29;20059;-76
2022/03/10 06:16:20;;;;;;;9.63;7.40;;;0.80;99.90;;;;;;4927822;29;20051;-76
2022/03/10 06:18:45;;;;;;;12.63;7.13;;;0.80;99.90;;;;;;4928736;29;20478;-76
2022/03/10 06:21:11;;;;;;;6.93;5.77;;;0.80;99.90;;;;;;4929556;29;20130;-80
2022/03/10 06:23:36;;;;;;;5.60;5.10;;;0.80;99.90;;;;;;4928109;29;20074;-76
2022/03/10 06:26:02;;;;;;;6.50;6.00;;;0.80;99.90;;;;;;4927842;29;20036;-76
2022/03/10 06:28:27;;;;;;;7.97;4.60;;;0.80;99.90;;;;;;4941880;28;20778;-76
2022/03/10 06:30:53;;;;;;;7.57;6.30;;;0.80;99.90;;;;;;4927227;29;20431;-76
2022/03/10 06:33:18;;;;;;;7.70;6.93;;;0.80;99.90;;;;;;4926734;29;20561;-76
2022/03/10 06:35:44;;;;;;;8.80;6.40;;;0.80;99.90;;;;;;4928738;29;20052;-76
2022/03/10 06:38:10;;;;;;;8.47;6.13;;;0.80;99.90;;;;;;4927745;29;20370;-76
2022/03/10 06:40:36;;;;;;;5.73;5.00;;;0.80;99.90;;;;;;4942749;29;20130;-76
2022/03/10 06:43:01;;;;;;;6.40;5.90;;;0.80;99.90;;;;;;4928441;29;20569;-76
2022/03/10 06:45:27;;;;;;;16.47;9.83;;;0.80;99.90;;;;;;4927315;29;20079;-76
2022/03/10 06:47:52;;;;;;;13.83;8.40;;;0.80;99.90;;;;;;4927580;29;20098;-75
2022/03/10 06:50:18;;;;;;;7.77;5.93;;;0.90;99.90;;;;;;4942654;29;20044;-76
2022/03/10 06:52:43;;;;;;;11.53;6.93;;;0.80;99.90;;;;;;4928121;29;20048;-76
2022/03/10 06:55:09;;;;;;;9.57;8.53;;;0.90;99.90;;;;;;4926994;29;20044;-76
2022/03/10 06:57:34;;;;;;;6.70;6.10;;;0.90;99.90;;;;;;4942137;29;20058;-76
2022/03/10 07:00:00;;;;;;;9.10;6.53;;;0.80;99.90;;;;;;4927533;29;20075;-75
2022/03/10 07:02:26;;;;;;;13.20;7.00;;;0.80;99.90;;;;;;4925730;29;20031;-74
2022/03/10 07:04:51;;;;;;;9.53;6.63;;;0.90;99.90;;;;;;4941889;28;20075;-74
2022/03/10 07:07:17;;;;;;;10.07;6.83;;;0.90;99.90;;;;;;4926427;29;20050;-74
2022/03/10 07:09:43;;;;;;;11.27;6.00;;;0.90;99.90;;;;;;4927278;29;20044;-74
2022/03/10 07:12:09;;;;;;;9.33;7.43;;;0.90;99.90;;;;;;4940679;29;20411;-74
2022/03/10 07:14:35;;;;;;;7.97;7.17;;;1.00;99.90;;;;;;4926790;29;20142;-74
2022/03/10 07:17:00;;;;;;;7.97;5.23;;;1.00;99.90;;;;;;4925962;29;20048;-74
2022/03/10 07:19:26;;;;;;;7.77;6.47;;;1.00;99.90;;;;;;4927580;29;20044;-74
2022/03/10 07:21:51;;;;;;;8.17;6.73;;;1.10;99.90;;;;;;4928899;28;20514;-74
2022/03/10 07:24:17;;;;;;;13.40;7.00;;;1.10;99.90;;;;;;4927892;29;20471;-74
2022/03/10 07:26:43;;;;;;;5.87;5.37;;;1.10;99.90;;;;;;4922932;29;20542;-74
2022/03/10 07:29:09;;;;;;;8.53;7.50;;;1.20;99.90;;;;;;4927137;29;20065;-74
2022/03/10 07:31:34;;;;;;;7.53;6.03;;;1.20;99.90;;;;;;4923928;29;20486;-74
2022/03/10 07:34:00;;;;;;;7.47;6.60;;;1.30;99.90;;;;;;4926878;29;20565;-74
2022/03/10 07:36:26;;;;;;;8.67;5.40;;;1.40;99.90;;;;;;4944361;28;20069;-74
2022/03/10 07:38:52;;;;;;;11.90;6.20;;;1.40;99.90;;;;;;4926899;29;20039;-74
2022/03/10 07:41:17;;;;;;;7.47;6.53;;;1.40;99.90;;;;;;4926688;29;20418;-74
2022/03/10 07:43:43;;;;;;;7.03;5.13;;;1.50;99.90;;;;;;4927370;29;20035;-74
2022/03/10 07:46:08;;;;;;;9.70;6.13;;;1.50;99.90;;;;;;4909108;29;20099;-74
2022/03/10 07:48:34;;;;;;;6.00;5.33;;;1.60;99.90;;;;;;4926350;29;20051;-74
2022/03/10 07:51:00;;;;;;;11.77;6.73;;;1.60;99.90;;;;;;4926486;29;20066;-74
2022/03/10 07:53:26;;;;;;;13.20;7.17;;;1.70;99.90;;;;;;4926982;29;20491;-74
2022/03/10 07:55:55;;;;;;;10.27;9.00;;;1.80;99.90;;;;;;4940396;29;20043;-74
2022/03/10 07:58:23;;;;;;;16.47;8.33;;;1.80;99.90;;;;;;4925488;29;20039;-75
2022/03/10 08:00:51;;;;;;;6.53;6.03;;;1.90;99.90;;;;;;4925842;29;20048;-74
2022/03/10 08:03:16;;;;;;;4.63;4.33;;;1.90;99.90;;;;;;4924836;29;20076;-75
2022/03/10 08:05:44;;;;;;;11.90;7.27;;;2.00;99.90;;;;;;4923660;29;21340;-75
2022/03/10 08:08:10;;;;;;;8.43;7.50;;;2.00;99.90;;;;;;4925198;29;20051;-75
2022/03/10 08:10:36;;;;;;;6.97;5.90;;;2.00;99.90;;;;;;4926506;29;20052;-75
2022/03/10 08:13:01;;;;;;;14.20;6.53;;;2.00;99.90;;;;;;4923922;29;20054;-75
2022/03/10 08:15:28;;;;;;;10.70;7.37;;;2.10;99.90;;;;;;4924307;29;20079;-75
2022/03/10 08:17:53;;;;;;;10.50;6.30;;;2.20;99.90;;;;;;4925179;29;20462;-75
2022/03/10 08:20:19;;;;;;;7.27;6.57;;;2.20;99.90;;;;;;4940613;29;20048;-75
2022/03/10 08:22:44;;;;;;;6.27;5.67;;;2.30;99.90;;;;;;4926013;29;20039;-74
2022/03/10 08:25:10;;;;;;;6.80;6.20;;;2.30;99.90;;;;;;4941037;29;20048;-75
2022/03/10 08:27:35;;;;;;;9.40;8.47;;;2.30;99.90;;;;;;4924149;29;20040;-75
2022/03/10 08:30:02;;;;;;;20.63;7.10;;;2.40;99.90;;;;;;4925845;29;20077;-75
2022/03/10 08:32:27;;;;;;;7.60;6.80;;;2.50;99.90;;;;;;4924429;29;20043;-75
2022/03/10 08:34:53;;;;;;;10.40;6.30;;;2.50;99.90;;;;;;4925545;29;20398;-75
2022/03/10 08:37:18;;;;;;;11.87;7.70;;;2.50;99.90;;;;;;4925557;29;20052;-75
2022/03/10 08:39:44;;;;;;;9.47;6.13;;;2.60;99.90;;;;;;4925435;29;20107;-75
2022/03/10 08:42:10;;;;;;;10.30;5.93;;;2.60;99.90;;;;;;4924315;29;20513;-75
2022/03/10 08:44:36;;;;;;;9.03;8.13;;;2.70;99.90;;;;;;4925736;29;20032;-76
2022/03/10 08:47:02;;;;;;;32.80;9.00;;;2.70;99.90;;;;;;4923168;29;20423;-75
2022/03/10 08:49:28;;;;;;;11.70;6.70;;;2.80;99.90;;;;;;4925568;29;20048;-75
2022/03/10 08:51:54;;;;;;;7.60;6.03;;;2.80;99.90;;;;;;4924842;29;20032;-75
2022/03/10 08:54:20;;;;;;;21.23;7.90;;;2.90;99.90;;;;;;4924935;28;20075;-75
2022/03/10 08:56:46;;;;;;;6.03;4.93;;;2.90;99.90;;;;;;4939123;29;20094;-75
2022/03/10 08:59:11;;;;;;;8.87;5.97;;;3.00;99.90;;;;;;4925045;29;20055;-75
2022/03/10 09:01:37;;;;;;;11.70;7.20;;;3.00;99.90;;;;;;4923899;29;20686;-75
2022/03/10 09:04:03;;;;;;;9.50;8.00;;;3.10;99.90;;;;;;4924250;29;20083;-75
2022/03/10 09:06:29;;;;;;;13.60;7.10;;;3.20;99.90;;;;;;4924695;29;20070;-75
2022/03/10 09:08:54;;;;;;;9.37;6.57;;;3.30;99.90;;;;;;4922856;29;20159;-75
2022/03/10 09:11:20;;;;;;;5.67;5.23;;;3.30;99.90;;;;;;4939407;29;20051;-75
2022/03/10 09:13:48;;;;;;;7.57;5.90;;;3.40;99.90;;;;;;4923762;29;20067;-76
2022/03/10 09:16:21;;;;;;;7.93;6.67;;;3.50;99.90;;;;;;4923652;29;20558;-76
2022/03/10 09:18:48;;;;;;;7.97;7.17;;;3.60;99.90;;;;;;4922699;29;20135;-75
2022/03/10 09:21:14;;;;;;;5.23;4.77;;;3.70;99.90;;;;;;4924802;29;20047;-76
2022/03/10 09:23:40;;;;;;;16.83;8.13;;;3.70;99.90;;;;;;4925036;29;20495;-75
2022/03/10 09:26:06;;;;;;;9.87;6.10;;;3.80;99.90;;;;;;4924918;29;20047;-76
2022/03/10 09:28:32;;;;;;;8.30;6.43;;;3.80;99.90;;;;;;4924158;29;20048;-76
2022/03/10 09:30:57;;;;;;;5.47;4.97;;;3.90;99.90;;;;;;4923063;29;20044;-76
2022/03/10 09:33:23;;;;;;;8.93;8.13;;;4.00;99.90;;;;;;4923250;29;20418;-75
2022/03/10 09:35:50;;;;;;;7.60;6.83;;;4.00;99.90;;;;;;4924851;29;20059;-75
2022/03/10 09:38:16;;;;;;;9.87;6.73;;;4.10;99.90;;;;;;4924551;29;20063;-75
2022/03/10 09:40:41;;;;;;;10.50;7.60;;;4.10;99.90;;;;;;4923875;29;20546;-75
2022/03/10 09:43:08;;;;;;;14.03;6.83;;;4.20;99.90;;;;;;4924199;29;20039;-75
2022/03/10 09:45:36;;;;;;;8.43;7.03;;;4.30;99.90;;;;;;4927007;29;20399;-75
2022/03/10 09:48:02;;;;;;;10.37;7.23;;;4.40;99.90;;;;;;4942966;28;20043;-76
2022/03/10 09:50:28;;;;;;;7.77;7.00;;;4.50;99.90;;;;;;4929221;29;20054;-78
2022/03/10 09:52:53;;;;;;;12.37;10.13;;;4.60;99.90;;;;;;4929109;29;20051;-76
2022/03/10 09:55:19;;;;;;;17.20;5.80;;;4.70;99.90;;;;;;4929141;29;20051;-76
2022/03/10 09:57:46;;;;;;;11.97;8.03;;;4.80;99.90;;;;;;4928957;29;20517;-75
2022/03/10 10:00:15;;;;;;;8.90;7.50;;;4.80;99.90;;;;;;4926959;29;20040;-76
2022/03/10 10:02:44;;;;;;;17.17;8.67;;;5.00;99.90;;;;;;4927541;29;20051;-76
2022/03/10 10:05:20;;;;;;;7.33;6.10;;;5.00;99.90;;;;;;4928314;29;20051;-76
2022/03/10 10:08:08;;;;;;;10.37;7.47;;;5.10;99.90;;;;;;4926440;29;20130;-76
2022/03/10 10:10:35;;;;;;;14.50;7.13;;;5.30;99.90;;;;;;4927546;29;20083;-76
2022/03/10 10:13:06;;;;;;;10.93;8.67;;;5.30;99.90;;;;;;4928020;29;20056;-76
2022/03/10 10:15:35;;;;;;;13.37;7.37;;;5.40;99.90;;;;;;4927876;29;20396;-76
2022/03/10 10:18:01;;;;;;;8.20;7.30;;;5.40;99.90;;;;;;4927901;29;20040;-76
2022/03/10 10:20:31;;;;;;;15.47;8.47;;;5.50;99.90;;;;;;4925524;29;20044;-81
2022/03/10 10:23:14;;;;;;;10.17;6.90;;;5.60;99.90;;;;;;4927360;29;20102;-80
2022/03/10 10:25:51;;;;;;;19.73;8.57;;;5.60;99.90;;;;;;4928423;28;20143;-81
2022/03/10 10:28:29;;;;;;;12.07;8.97;;;5.70;99.90;;;;;;4926409;29;20044;-82
2022/03/10 10:31:04;;;;;;;14.48;9.90;;;5.80;99.90;;;;;;4927105;29;20661;-76
2022/03/10 10:33:32;;;;;;;12.23;9.13;;;5.80;99.90;;;;;;4936592;29;20051;-75
2022/03/10 10:36:18;;;;;;;12.93;9.13;;;6.00;99.90;;;;;;4934443;29;20043;-75
2022/03/10 10:38:46;;;;;;;12.77;8.63;;;6.10;99.90;;;;;;4927524;29;20048;-76
2022/03/10 10:41:20;;;;;;;13.07;6.82;;;6.20;99.90;;;;;;4943911;28;20050;-76
2022/03/10 10:43:49;;;;;;;14.95;9.70;;;6.30;99.90;;;;;;4926949;29;20122;-75
2022/03/10 10:46:40;;;;;;;9.95;8.55;;;6.30;99.90;;;;;;4927229;29;20054;-76
2022/03/10 10:49:17;;;;;;;14.55;8.63;;;6.40;99.90;;;;;;4927829;29;20051;-76
2022/03/10 10:51:44;;;;;;;7.70;6.97;;;6.50;99.90;;;;;;4927486;29;20078;-76
2022/03/10 10:54:20;;;;;;;13.18;9.23;;;6.60;99.90;;;;;;4926845;29;20499;-76
2022/03/10 10:56:46;;;;;;;13.18;7.97;;;6.70;99.90;;;;;;4927036;29;20044;-76
2022/03/10 10:59:34;;;;;;;8.88;7.65;;;6.80;99.90;;;;;;4927336;29;20135;-76
2022/03/10 11:02:34;;;;;;;12.07;9.20;;;6.90;99.90;;;;;;4925556;29;20071;-76
2022/03/10 11:05:01;;;;;;;11.75;8.48;;;7.00;99.90;;;;;;4915890;29;20491;-76
2022/03/10 11:07:26;;;;;;;7.97;7.22;;;7.10;99.90;;;;;;4926642;29;20078;-76
2022/03/10 11:09:52;;;;;;;12.27;9.27;;;7.20;99.90;;;;;;4927486;29;20080;-76
2022/03/10 11:12:18;;;;;;;12.43;7.13;;;7.20;99.90;;;;;;4927900;29;20068;-76
2022/03/10 11:14:45;;;;;;;8.55;7.25;;;7.30;99.90;;;;;;4942613;29;20056;-76
2022/03/10 11:17:13;;;;;;;8.73;6.60;;;7.40;99.90;;;;;;4925477;29;20426;-76
2022/03/10 11:19:44;;;;;;;17.63;6.85;;;7.40;99.90;;;;;;4926395;29;20058;-76
2022/03/10 11:22:33;;;;;;;10.73;5.88;;;7.50;99.90;;;;;;4927371;29;20062;-76
2022/03/10 11:25:12;;;;;;;11.70;7.78;;;7.60;99.90;;;;;;4927422;29;20036;-74
2022/03/10 11:27:56;;;;;;;23.33;9.85;;;7.70;99.90;;;;;;4927233;29;20035;-75
2022/03/10 11:30:27;;;;;;;10.63;8.70;;;7.80;99.90;;;;;;4924259;29;20706;-76
2022/03/10 11:33:00;;;;;;;8.75;6.78;;;7.80;99.90;;;;;;4925263;29;20087;-76
2022/03/10 11:35:36;;;;;;;11.05;8.27;;;7.90;99.90;;;;;;4923525;29;20386;-76
2022/03/10 11:38:02;;;;;;;10.15;7.40;;;8.00;99.90;;;;;;4925594;29;20471;-76
2022/03/10 11:40:56;;;;;;;11.00;7.68;;;8.10;99.90;;;;;;4926180;29;20363;-76
2022/03/10 11:43:30;;;;;;;7.50;6.28;;;8.10;99.90;;;;;;4926656;29;20059;-76
2022/03/10 11:46:17;;;;;;;10.63;7.47;;;8.10;99.90;;;;;;4924818;29;20098;-76
2022/03/10 11:48:43;;;;;;;14.02;10.35;;;8.10;99.90;;;;;;4926251;29;20081;-76
2022/03/10 11:51:11;;;;;;;12.98;8.60;;;8.20;99.90;;;;;;4924736;29;20055;-76
2022/03/10 11:53:57;;;;;;;11.13;6.32;;;8.20;99.90;;;;;;4925023;29;20054;-76
2022/03/10 11:56:54;;;;;;;13.65;8.88;;;8.30;99.90;;;;;;4924405;29;20050;-76
2022/03/10 11:59:25;;;;;;;9.13;7.82;;;8.30;99.90;;;;;;4920690;29;20184;-76
2022/03/10 12:01:53;;;;;;;10.80;8.32;;;8.40;99.90;;;;;;4924525;29;20050;-76
2022/03/10 12:04:22;;;;;;;19.77;7.63;;;8.40;99.90;;;;;;4939964;28;20090;-76
2022/03/10 12:06:56;;;;;;;12.68;8.75;;;8.40;99.90;;;;;;4939789;28;20044;-76
2022/03/10 12:09:27;;;;;;;19.63;7.10;;;8.50;99.90;;;;;;4923689;29;20126;-76
2022/03/10 12:11:54;;;;;;;12.65;9.45;;;8.60;99.90;;;;;;4923819;29;20134;-76
2022/03/10 12:14:25;;;;;;;10.77;6.50;;;8.70;99.90;;;;;;4925513;29;20098;-76
2022/03/10 12:16:50;;;;;;;14.13;8.18;;;8.80;99.90;;;;;;4938791;28;20054;-76
2022/03/10 12:19:16;;;;;;;13.45;8.63;;;8.90;99.90;;;;;;4924604;29;20555;-76
2022/03/10 12:21:42;;;;;;;7.35;6.65;;;8.90;99.90;;;;;;4940558;28;20356;-76
2022/03/10 12:24:07;;;;;;;14.63;8.30;;;8.90;99.90;;;;;;4925435;29;20047;-76
2022/03/10 12:26:34;;;;;;;9.38;7.78;;;8.90;99.90;;;;;;4925224;29;20087;-76
2022/03/10 12:29:11;;;;;;;14.95;7.95;;;9.00;99.90;;;;;;4939516;28;20055;-76
2022/03/10 12:31:38;;;;;;;11.32;8.85;;;9.00;99.90;;;;;;4939310;29;20071;-76
2022/03/10 12:34:09;;;;;;;12.48;7.35;;;9.00;99.90;;;;;;4925229;29;20416;-76
2022/03/10 12:36:37;;;;;;;19.80;8.48;;;9.10;99.90;;;;;;4924984;29;20052;-76
2022/03/10 12:39:15;;;;;;;14.05;7.38;;;9.10;99.90;;;;;;4924719;29;20039;-76
2022/03/10 12:41:45;;;;;;;9.43;6.88;;;9.20;99.90;;;;;;4924090;29;20051;-77
2022/03/10 12:44:13;;;;;;;13.40;6.55;;;9.30;99.90;;;;;;4922709;29;20035;-76
2022/03/10 12:46:41;;;;;;;13.30;6.90;;;9.40;99.90;;;;;;4923023;29;20051;-77
2022/03/10 12:49:24;;;;;;;10.45;6.82;;;9.40;99.90;;;;;;4923952;29;20107;-77
2022/03/10 12:51:50;;;;;;;10.20;6.47;;;9.40;99.90;;;;;;4926010;29;20055;-77
2022/03/10 12:54:17;;;;;;;14.70;7.20;;;9.40;99.90;;;;;;4923777;29;20051;-78
2022/03/10 12:56:54;;;;;;;12.75;8.02;;;9.50;99.90;;;;;;4924401;29;20407;-78
2022/03/10 12:59:25;;;;;;;19.58;8.02;;;9.50;99.90;;;;;;4909071;29;20043;-76
2022/03/10 13:01:51;;;;;;;15.02;8.35;;;9.50;99.90;;;;;;4923437;29;20047;-75
2022/03/10 13:04:17;;;;;;;14.10;8.25;;;9.50;99.90;;;;;;4924739;29;20052;-79